Amherst, Texas
Current Conditions -  °F | °C
As of 3:15 AM on Wednesday 22 Oct 2014 (Local Time) from KPVW Reporting Station
Broken Clouds Broken Clouds  
Wind Chill: 14°   Ceiling: 8500
Heat Index: 14°   Visibility: 10mi
Dew Point: 11°   Wind: 3mph
Humidity: 82%   Direction: 190°S
Pressure: 30.08"   Gusts: NA
Location:  34.01°N, 102.42°W
Report Text: KPVW 220815Z AUTO 19003KT 10SM BKN085 BKN110 14/11 A3008 RMK AO2 T01410110
Loading
Personal Weather Stations






























Interactive Weather Map
Tropical Storm Tracking
New forecast layout! Learn more

10-Day Weather Forecast

Advertisements
Track Severe Weather on mobile